Cantwell, AK

5:30 PM AKDT on April 27, 2015 (GMT -0800)
Chulitna | | Change Station
CLOSE
Current Station
Airport
Location: Chulitna,
Elevation: 1250 ft
Nearby Weather Stations

Elev 1250 ft 62.88 °N, 149.83 °W | Updated 38 minutes ago

Scattered Clouds
Scattered Clouds
48 °F
Feels Like 48 °F
N
6
Wind Variable Wind from South

Today
High -- | Low -- °F
--% Chance of Precip.
Yesterday
High -- | Low -- °F
Precip. -- in
5:45 AM 10:01 PM
Waxing Gibbous, 69% visible
Pressure 29.58 in
Visibility 30.0 miles
Clouds Few 5000 ft
Scattered Clouds 22000 ft
Dew Point -2 °F
Humidity 12%
Rainfall 0.00 in
Snow Depth Not available.
UV 3 out of 12
Pollen Not available.
Air Quality Not available.
Flu Activity Sporadic
METAR PAEC 280052Z 17005KT 30SM FEW050 SCT220 09/M19 A2958 RMK NOSPECI

More Conditions Fewer Conditions

Pressure 29.58 in
Visibility 30.0 miles
Clouds Few 5000 ft
Scattered Clouds 22000 ft
Dew Point -2 °F
Humidity 12%
Rainfall 0.00 in
Snow Depth Not available.
UV 3 out of 12
Pollen Not available.
Air Quality Not available.
Flu Activity Sporadic
METAR PAEC 280052Z 17005KT 30SM FEW050 SCT220 09/M19 A2958 RMK NOSPECI

More Conditions Fewer Conditions

10-Day Weather Forecast

Almanac

Astronomy

Apr. 27, 2015 Rise Set
Actual Time
Civil Twilight
Nautical Twilight
Astronomical Twilight
Moon
Length of Visible Light
Length of Day
Tomorrow will be .
, % of the Moon is Illuminated

Today's Extremes

State Highs State Lows

Community

WunderPhotos

Upload Photos

1,817,508 photos uploaded!

WunderBlogs® & News

Nearby

Air Quality

  Air Quality AQ Index Pollutant
Not available.

Snow Depth

Station Depth Elevation

Earthquake Activity

City Distance Mag. Time & Date
Minimum magnitude displayed is 2.5.

Coastal Water Temperatures

Place Temperature

Stations

Nearby Weather Stations

Station Location Temp. Windchill Dew Point Humidity Wind Precip. Elev Updated Type